createdAt,value
2022-08-30T00:01:27.688Z,13.83
2022-08-30T00:04:18.471Z,13.81
2022-08-30T00:07:08.528Z,13.88
2022-08-30T00:10:22.726Z,13.78
2022-08-30T00:13:20.563Z,13.74
2022-08-30T00:16:08.086Z,13.67
2022-08-30T00:19:21.325Z,13.62
2022-08-30T00:22:17.914Z,13.62
2022-08-30T00:25:30.388Z,13.65
2022-08-30T00:28:21.348Z,13.63
2022-08-30T00:31:37.392Z,13.61
2022-08-30T00:34:25.416Z,13.57
2022-08-30T00:37:12.117Z,13.56
2022-08-30T00:40:01.135Z,13.60
2022-08-30T00:42:58.094Z,13.51
2022-08-30T00:45:46.701Z,13.45
2022-08-30T00:48:44.595Z,13.41
2022-08-30T00:51:33.492Z,13.52
2022-08-30T00:54:21.082Z,13.47
2022-08-30T00:57:10.514Z,13.44
2022-08-30T00:59:57.180Z,13.39
2022-08-30T01:03:09.436Z,13.45
2022-08-30T01:06:02.073Z,13.36
2022-08-30T01:08:50.169Z,13.30
2022-08-30T01:12:50.610Z,13.29
2022-08-30T01:16:03.538Z,13.25
2022-08-30T01:19:01.049Z,13.11
2022-08-30T01:21:56.888Z,13.18
2022-08-30T01:24:49.492Z,13.16
2022-08-30T01:27:47.685Z,13.14
2022-08-30T01:30:59.213Z,13.14
2022-08-30T01:33:49.051Z,13.20
2022-08-30T01:36:47.164Z,13.20
2022-08-30T01:39:36.905Z,13.17
2022-08-30T01:42:54.953Z,13.18
2022-08-30T01:45:41.835Z,13.15
2022-08-30T01:48:31.269Z,13.17
2022-08-30T01:51:31.183Z,13.21
2022-08-30T01:54:20.291Z,13.26
2022-08-30T01:57:19.583Z,13.25
2022-08-30T02:00:11.610Z,13.27
2022-08-30T02:03:04.145Z,13.30
2022-08-30T02:05:51.145Z,13.33
2022-08-30T02:08:40.323Z,13.33
2022-08-30T02:11:27.156Z,13.37
2022-08-30T02:14:16.384Z,13.37
2022-08-30T02:17:06.065Z,13.37
2022-08-30T02:19:52.716Z,13.39
2022-08-30T02:22:39.876Z,13.45
2022-08-30T02:25:38.996Z,13.51
2022-08-30T02:28:28.779Z,13.61
2022-08-30T02:31:16.605Z,13.61
2022-08-30T02:34:12.738Z,13.66
2022-08-30T02:37:06.731Z,13.62
2022-08-30T02:39:56.005Z,13.65
2022-08-30T02:42:43.006Z,13.66
2022-08-30T02:45:57.558Z,13.70
2022-08-30T02:48:49.866Z,13.75
2022-08-30T02:51:43.694Z,13.71
2022-08-30T02:54:35.701Z,13.73
2022-08-30T02:57:22.966Z,13.70
2022-08-30T03:00:35.654Z,13.71
2022-08-30T03:03:24.927Z,13.72
2022-08-30T03:06:11.487Z,13.73
2022-08-30T03:09:01.957Z,13.75
2022-08-30T03:11:52.199Z,13.80
2022-08-30T03:14:44.697Z,13.82
2022-08-30T03:17:31.315Z,13.86
2022-08-30T03:20:50.458Z,13.87
2022-08-30T03:23:42.779Z,13.90
2022-08-30T03:26:35.885Z,13.86
2022-08-30T03:29:27.772Z,13.87
2022-08-30T03:32:17.569Z,13.87
2022-08-30T03:35:06.451Z,13.89
2022-08-30T03:37:56.316Z,13.90
2022-08-30T03:40:43.311Z,13.87
2022-08-30T03:43:39.094Z,13.89
2022-08-30T03:46:31.818Z,13.89
2022-08-30T03:49:22.272Z,13.88
2022-08-30T03:52:38.528Z,13.89
2022-08-30T03:55:25.130Z,13.95
2022-08-30T03:58:14.959Z,13.97
2022-08-30T04:01:18.787Z,14.03
2022-08-30T04:04:05.603Z,14.05
2022-08-30T04:06:52.808Z,14.11
2022-08-30T04:09:39.751Z,14.14
2022-08-30T04:12:57.440Z,14.11
2022-08-30T04:15:43.900Z,14.13
2022-08-30T04:18:36.906Z,14.15
2022-08-30T04:21:27.673Z,14.18
2022-08-30T04:24:48.085Z,14.21
2022-08-30T04:27:37.968Z,14.25
2022-08-30T04:30:56.701Z,14.25
2022-08-30T04:33:50.839Z,14.27
2022-08-30T04:36:37.432Z,14.30
2022-08-30T04:39:24.507Z,14.30
2022-08-30T04:42:11.511Z,14.33
2022-08-30T04:44:58.576Z,14.35
2022-08-30T04:48:14.009Z,14.41
2022-08-30T04:51:07.030Z,14.43
2022-08-30T04:54:02.234Z,14.48
2022-08-30T04:57:07.223Z,14.52
2022-08-30T05:00:08.304Z,14.59
2022-08-30T05:02:58.412Z,14.66
2022-08-30T05:06:22.220Z,14.73
2022-08-30T05:09:12.388Z,14.76
2022-08-30T05:12:27.901Z,14.84
2022-08-30T05:15:17.097Z,14.92
2022-08-30T05:18:03.593Z,14.98
2022-08-30T05:20:54.830Z,15.03
2022-08-30T05:23:45.450Z,15.08
2022-08-30T05:26:57.202Z,15.15
2022-08-30T05:29:43.688Z,15.21
2022-08-30T05:32:32.850Z,15.27
2022-08-30T05:35:25.896Z,15.34
2022-08-30T05:38:15.848Z,15.39
2022-08-30T05:41:10.946Z,15.45
2022-08-30T05:44:07.568Z,15.50
2022-08-30T05:46:54.677Z,15.57
2022-08-30T05:49:41.503Z,15.78
2022-08-30T05:52:28.572Z,15.76
2022-08-30T05:55:17.893Z,15.83
2022-08-30T05:58:12.186Z,15.89
2022-08-30T06:01:01.622Z,15.95
2022-08-30T06:03:48.632Z,16.00
2022-08-30T06:07:02.267Z,16.13
2022-08-30T06:09:51.250Z,16.17
2022-08-30T06:12:40.048Z,16.28
2022-08-30T06:15:32.731Z,16.28
2022-08-30T06:18:28.787Z,16.37
2022-08-30T06:21:37.845Z,16.47
2022-08-30T06:24:41.089Z,16.48
2022-08-30T06:28:01.578Z,16.64
2022-08-30T06:30:55.476Z,16.55
2022-08-30T06:33:44.404Z,16.61
2022-08-30T06:36:35.341Z,16.59
2022-08-30T06:39:21.708Z,16.65
2022-08-30T06:42:11.530Z,16.74
2022-08-30T06:45:00.897Z,16.74
2022-08-30T06:47:55.624Z,16.90
2022-08-30T06:50:47.649Z,16.99
2022-08-30T06:54:01.251Z,17.03
2022-08-30T06:56:58.099Z,16.95
2022-08-30T06:59:46.792Z,17.16
2022-08-30T07:02:33.602Z,17.06
2022-08-30T07:05:30.811Z,17.06
2022-08-30T07:12:10.559Z,17.41
2022-08-30T07:14:59.866Z,17.19
2022-08-30T07:18:04.939Z,17.38
2022-08-30T07:20:57.976Z,17.48
2022-08-30T07:23:53.095Z,17.54
2022-08-30T07:26:49.273Z,17.69
2022-08-30T07:30:05.954Z,17.79
2022-08-30T07:32:55.826Z,18.02
2022-08-30T07:35:42.219Z,18.00
2022-08-30T07:38:30.361Z,18.12
2022-08-30T07:41:42.892Z,18.24
2022-08-30T07:44:29.589Z,18.29
2022-08-30T07:47:19.300Z,18.18
2022-08-30T07:50:07.380Z,18.28
2022-08-30T07:52:55.462Z,18.34
2022-08-30T07:55:48.476Z,18.39
2022-08-30T07:58:40.246Z,18.28
2022-08-30T08:01:29.443Z,18.15
2022-08-30T08:04:41.062Z,18.30
2022-08-30T08:07:30.037Z,18.46
2022-08-30T08:10:20.241Z,18.64
2022-08-30T08:13:10.655Z,18.46
2022-08-30T08:16:27.417Z,18.22
2022-08-30T08:19:13.961Z,18.27
2022-08-30T08:22:21.842Z,18.59
2022-08-30T08:25:09.485Z,18.59
2022-08-30T08:28:01.276Z,18.72
2022-08-30T08:30:54.424Z,18.67
2022-08-30T08:33:41.336Z,18.77
2022-08-30T08:36:37.246Z,18.98
2022-08-30T08:39:23.983Z,18.85
2022-08-30T08:42:36.637Z,18.82
2022-08-30T08:45:57.460Z,18.87
2022-08-30T08:49:04.977Z,18.92
2022-08-30T08:52:10.051Z,19.21
2022-08-30T08:55:42.424Z,19.29
2022-08-30T08:58:50.219Z,19.70
2022-08-30T09:01:46.488Z,19.67
2022-08-30T09:04:42.614Z,19.41
2022-08-30T09:08:01.601Z,19.71
2022-08-30T09:11:18.729Z,19.84
2022-08-30T09:14:46.704Z,19.77
2022-08-30T09:18:07.099Z,19.95
2022-08-30T09:21:18.363Z,19.89
2022-08-30T09:24:29.824Z,19.70
2022-08-30T09:27:55.408Z,19.99
2022-08-30T09:31:29.335Z,20.17
2022-08-30T09:34:28.933Z,20.23
2022-08-30T09:38:03.586Z,20.25
2022-08-30T09:41:03.637Z,20.13
2022-08-30T09:44:23.318Z,20.44
2022-08-30T09:47:48.841Z,20.61
2022-08-30T09:50:42.279Z,20.81
2022-08-30T09:54:14.152Z,20.95
2022-08-30T09:57:49.237Z,20.93
2022-08-30T10:01:26.818Z,21.04
2022-08-30T10:04:41.890Z,20.92
2022-08-30T10:07:46.156Z,20.97
2022-08-30T10:11:07.599Z,20.76
2022-08-30T10:14:42.549Z,20.72
2022-08-30T10:17:54.708Z,20.45
2022-08-30T10:21:19.053Z,20.61
2022-08-30T10:24:30.148Z,20.69
2022-08-30T10:27:55.636Z,20.71
2022-08-30T10:30:50.859Z,20.66
2022-08-30T10:34:10.229Z,20.79
2022-08-30T10:37:16.703Z,20.90
2022-08-30T10:40:53.721Z,21.03
2022-08-30T10:44:06.268Z,21.06
2022-08-30T10:47:08.606Z,20.99
2022-08-30T10:50:28.274Z,20.95
2022-08-30T10:53:42.013Z,21.16
2022-08-30T10:57:11.879Z,20.99
2022-08-30T11:00:06.693Z,21.19
2022-08-30T11:03:45.730Z,21.43
2022-08-30T11:06:45.022Z,21.69
2022-08-30T11:10:19.144Z,21.73
2022-08-30T11:13:25.293Z,21.77
2022-08-30T11:16:37.732Z,21.59
2022-08-30T11:19:37.148Z,21.60
2022-08-30T11:23:07.003Z,21.47
2022-08-30T11:27:00.779Z,21.41
2022-08-30T11:29:52.332Z,20.95
2022-08-30T11:33:09.821Z,21.22
2022-08-30T11:35:59.203Z,21.09
2022-08-30T11:39:30.856Z,20.88
2022-08-30T11:45:57.569Z,20.95
2022-08-30T11:49:17.692Z,20.97
2022-08-30T11:52:41.712Z,20.83
2022-08-30T11:55:48.105Z,20.93
2022-08-30T11:58:54.941Z,21.00
2022-08-30T12:02:28.978Z,21.09
2022-08-30T12:06:02.998Z,21.14
2022-08-30T12:09:33.211Z,21.23
2022-08-30T12:13:04.667Z,21.34
2022-08-30T12:16:22.559Z,21.23
2022-08-30T12:19:18.291Z,21.48
2022-08-30T12:22:14.750Z,21.65
2022-08-30T12:25:03.525Z,21.65
2022-08-30T12:28:31.042Z,21.59
2022-08-30T12:31:51.824Z,21.58
2022-08-30T12:35:05.419Z,21.60
2022-08-30T12:38:47.133Z,21.58
2022-08-30T12:41:35.746Z,21.67
2022-08-30T12:45:21.060Z,21.76
2022-08-30T12:48:14.789Z,21.83
2022-08-30T12:51:01.495Z,21.87
2022-08-30T12:53:59.707Z,21.63
2022-08-30T12:57:43.332Z,20.48
2022-08-30T13:00:42.227Z,20.05
2022-08-30T13:04:14.351Z,19.84
2022-08-30T13:07:08.380Z,19.86
2022-08-30T13:10:33.884Z,19.79
2022-08-30T13:14:18.553Z,19.67
2022-08-30T13:17:31.937Z,19.52
2022-08-30T13:20:27.548Z,19.54
2022-08-30T13:23:24.179Z,19.60
2022-08-30T13:26:12.203Z,19.81
2022-08-30T13:29:04.559Z,19.80
2022-08-30T13:31:56.871Z,19.76
2022-08-30T13:35:37.157Z,19.75
2022-08-30T13:38:29.209Z,19.73
2022-08-30T13:50:32.280Z,19.84
2022-08-30T14:22:23.556Z,20.17
2022-08-30T14:25:13.198Z,20.14
2022-08-30T14:28:01.368Z,20.14
2022-08-30T14:31:18.198Z,20.22
2022-08-30T14:34:17.341Z,20.27
2022-08-30T14:37:09.428Z,20.10
2022-08-30T14:40:00.601Z,20.08
2022-08-30T14:42:50.946Z,20.17
2022-08-30T14:45:41.605Z,20.19
2022-08-30T14:48:31.226Z,20.22
2022-08-30T14:51:26.882Z,20.16
2022-08-30T14:54:28.297Z,20.18
2022-08-30T14:57:19.788Z,20.16
2022-08-30T15:00:34.180Z,20.14
2022-08-30T15:03:57.064Z,20.04
2022-08-30T15:06:50.328Z,20.02
2022-08-30T15:09:41.551Z,20.01
2022-08-30T15:12:57.398Z,20.14
2022-08-30T15:16:04.028Z,20.06
2022-08-30T15:18:58.111Z,20.07
2022-08-30T15:22:14.712Z,20.15
2022-08-30T15:25:03.099Z,20.18
2022-08-30T15:27:49.770Z,20.17
2022-08-30T15:30:42.448Z,20.30
2022-08-30T15:33:32.209Z,20.33
2022-08-30T15:36:22.842Z,20.25
2022-08-30T15:39:10.220Z,19.99
2022-08-30T15:42:01.163Z,20.14
2022-08-30T15:45:33.076Z,20.36
2022-08-30T15:48:23.937Z,20.32
2022-08-30T15:51:16.800Z,20.33
2022-08-30T15:54:04.051Z,20.31
2022-08-30T15:57:15.516Z,20.34
2022-08-30T16:00:28.675Z,20.26
2022-08-30T16:03:17.915Z,20.09
2022-08-30T16:06:13.094Z,20.20
2022-08-30T16:09:29.944Z,20.04
2022-08-30T16:12:23.805Z,20.02
2022-08-30T16:15:15.663Z,20.04
2022-08-30T16:18:03.007Z,20.05
2022-08-30T16:20:49.754Z,20.05
2022-08-30T16:33:17.815Z,19.55
2022-08-30T16:36:07.661Z,19.49
2022-08-30T16:38:58.364Z,19.36
2022-08-30T16:41:53.972Z,19.30
2022-08-30T16:44:41.527Z,19.31
2022-08-30T16:47:32.277Z,19.25
2022-08-30T16:50:25.818Z,19.17
2022-08-30T16:53:15.819Z,19.20
2022-08-30T16:56:10.850Z,19.15
2022-08-30T16:59:24.849Z,19.12
2022-08-30T17:02:53.427Z,19.04
2022-08-30T17:06:06.991Z,18.95
2022-08-30T17:08:56.929Z,18.82
2022-08-30T17:12:03.896Z,18.60
2022-08-30T17:14:51.142Z,18.43
2022-08-30T17:17:38.083Z,18.32
2022-08-30T17:21:02.633Z,18.16
2022-08-30T17:23:56.758Z,18.01
2022-08-30T17:27:15.006Z,17.94
